sensor_id;sensor_type;location;lat;lon;timestamp;P1;durP1;ratioP1;P2;durP2;ratioP2
9166;SDS011;4618;48.818;9.088;2023-03-31T00:01:34;5.87;;;1.63;;
9166;SDS011;4618;48.818;9.088;2023-03-31T00:04:00;4.73;;;1.33;;
9166;SDS011;4618;48.818;9.088;2023-03-31T00:06:29;3.77;;;1.23;;
9166;SDS011;4618;48.818;9.088;2023-03-31T00:08:56;3.60;;;1.30;;
9166;SDS011;4618;48.818;9.088;2023-03-31T00:11:25;3.83;;;1.23;;
9166;SDS011;4618;48.818;9.088;2023-03-31T00:13:51;3.83;;;1.33;;
9166;SDS011;4618;48.818;9.088;2023-03-31T00:16:17;7.13;;;1.70;;
9166;SDS011;4618;48.818;9.088;2023-03-31T00:18:43;3.27;;;1.30;;
9166;SDS011;4618;48.818;9.088;2023-03-31T00:21:14;3.50;;;1.47;;
9166;SDS011;4618;48.818;9.088;2023-03-31T00:23:54;4.37;;;1.60;;
9166;SDS011;4618;48.818;9.088;2023-03-31T00:26:21;4.50;;;1.40;;
9166;SDS011;4618;48.818;9.088;2023-03-31T00:28:47;5.27;;;1.50;;
9166;SDS011;4618;48.818;9.088;2023-03-31T00:31:13;5.73;;;1.40;;
9166;SDS011;4618;48.818;9.088;2023-03-31T00:33:39;5.70;;;1.53;;
9166;SDS011;4618;48.818;9.088;2023-03-31T00:36:05;4.07;;;1.60;;
9166;SDS011;4618;48.818;9.088;2023-03-31T00:38:33;4.80;;;1.50;;
9166;SDS011;4618;48.818;9.088;2023-03-31T00:40:59;4.40;;;1.47;;
9166;SDS011;4618;48.818;9.088;2023-03-31T00:43:27;5.73;;;1.30;;
9166;SDS011;4618;48.818;9.088;2023-03-31T00:46:04;3.13;;;1.40;;
9166;SDS011;4618;48.818;9.088;2023-03-31T00:48:51;5.13;;;1.30;;
9166;SDS011;4618;48.818;9.088;2023-03-31T00:51:21;4.80;;;1.70;;
9166;SDS011;4618;48.818;9.088;2023-03-31T00:53:53;4.43;;;1.40;;
9166;SDS011;4618;48.818;9.088;2023-03-31T00:56:24;4.73;;;1.47;;
9166;SDS011;4618;48.818;9.088;2023-03-31T00:58:52;5.93;;;1.53;;
9166;SDS011;4618;48.818;9.088;2023-03-31T01:01:23;2.57;;;1.27;;
9166;SDS011;4618;48.818;9.088;2023-03-31T01:03:50;6.20;;;1.27;;
9166;SDS011;4618;48.818;9.088;2023-03-31T01:06:17;4.53;;;1.30;;
9166;SDS011;4618;48.818;9.088;2023-03-31T01:08:47;5.53;;;1.67;;
9166;SDS011;4618;48.818;9.088;2023-03-31T01:11:16;4.10;;;1.57;;
9166;SDS011;4618;48.818;9.088;2023-03-31T01:13:44;5.40;;;1.60;;
9166;SDS011;4618;48.818;9.088;2023-03-31T01:16:15;4.30;;;1.60;;
9166;SDS011;4618;48.818;9.088;2023-03-31T01:18:41;4.60;;;1.20;;
9166;SDS011;4618;48.818;9.088;2023-03-31T01:30:02;3.93;;;1.43;;
9166;SDS011;4618;48.818;9.088;2023-03-31T01:46:53;3.53;;;1.10;;
9166;SDS011;4618;48.818;9.088;2023-03-31T01:49:24;4.83;;;1.17;;
9166;SDS011;4618;48.818;9.088;2023-03-31T01:54:44;3.70;;;1.00;;
9166;SDS011;4618;48.818;9.088;2023-03-31T01:57:31;2.07;;;0.90;;
9166;SDS011;4618;48.818;9.088;2023-03-31T02:00:04;5.53;;;1.00;;
9166;SDS011;4618;48.818;9.088;2023-03-31T02:02:37;5.67;;;1.00;;
9166;SDS011;4618;48.818;9.088;2023-03-31T02:05:14;5.07;;;1.40;;
9166;SDS011;4618;48.818;9.088;2023-03-31T02:07:45;2.40;;;0.90;;
9166;SDS011;4618;48.818;9.088;2023-03-31T02:10:28;2.93;;;0.80;;
9166;SDS011;4618;48.818;9.088;2023-03-31T02:12:56;4.80;;;1.00;;
9166;SDS011;4618;48.818;9.088;2023-03-31T02:15:26;1.90;;;0.90;;
9166;SDS011;4618;48.818;9.088;2023-03-31T02:17:54;5.27;;;1.03;;
9166;SDS011;4618;48.818;9.088;2023-03-31T02:20:22;4.27;;;1.10;;
9166;SDS011;4618;48.818;9.088;2023-03-31T02:22:51;3.83;;;0.90;;
9166;SDS011;4618;48.818;9.088;2023-03-31T02:25:21;4.63;;;1.30;;
9166;SDS011;4618;48.818;9.088;2023-03-31T02:27:51;5.53;;;1.43;;
9166;SDS011;4618;48.818;9.088;2023-03-31T02:30:42;5.23;;;1.40;;
9166;SDS011;4618;48.818;9.088;2023-03-31T02:33:14;3.33;;;1.37;;
9166;SDS011;4618;48.818;9.088;2023-03-31T02:35:41;5.17;;;1.50;;
9166;SDS011;4618;48.818;9.088;2023-03-31T02:38:07;4.80;;;1.63;;
9166;SDS011;4618;48.818;9.088;2023-03-31T02:40:33;4.80;;;1.37;;
9166;SDS011;4618;48.818;9.088;2023-03-31T02:42:59;3.30;;;1.20;;
9166;SDS011;4618;48.818;9.088;2023-03-31T02:45:39;4.57;;;1.57;;
9166;SDS011;4618;48.818;9.088;2023-03-31T02:48:16;3.57;;;1.40;;
9166;SDS011;4618;48.818;9.088;2023-03-31T02:53:40;4.57;;;1.77;;
9166;SDS011;4618;48.818;9.088;2023-03-31T02:56:31;5.10;;;1.63;;
9166;SDS011;4618;48.818;9.088;2023-03-31T03:15:44;4.80;;;1.70;;
9166;SDS011;4618;48.818;9.088;2023-03-31T03:18:13;4.43;;;1.60;;
9166;SDS011;4618;48.818;9.088;2023-03-31T03:20:41;3.20;;;1.70;;
9166;SDS011;4618;48.818;9.088;2023-03-31T03:23:07;5.27;;;1.67;;
9166;SDS011;4618;48.818;9.088;2023-03-31T03:25:32;3.57;;;1.80;;
9166;SDS011;4618;48.818;9.088;2023-03-31T03:27:59;3.90;;;1.77;;
9166;SDS011;4618;48.818;9.088;2023-03-31T03:30:25;4.37;;;1.70;;
9166;SDS011;4618;48.818;9.088;2023-03-31T03:32:50;4.37;;;1.93;;
9166;SDS011;4618;48.818;9.088;2023-03-31T03:35:16;2.83;;;1.63;;
9166;SDS011;4618;48.818;9.088;2023-03-31T03:37:41;4.57;;;1.83;;
9166;SDS011;4618;48.818;9.088;2023-03-31T03:40:07;3.70;;;1.80;;
9166;SDS011;4618;48.818;9.088;2023-03-31T03:42:34;3.33;;;1.60;;
9166;SDS011;4618;48.818;9.088;2023-03-31T03:45:00;4.43;;;2.23;;
9166;SDS011;4618;48.818;9.088;2023-03-31T03:47:26;4.87;;;1.87;;
9166;SDS011;4618;48.818;9.088;2023-03-31T03:49:52;4.67;;;2.40;;
9166;SDS011;4618;48.818;9.088;2023-03-31T03:52:17;4.50;;;1.83;;
9166;SDS011;4618;48.818;9.088;2023-03-31T03:54:43;6.07;;;2.60;;
9166;SDS011;4618;48.818;9.088;2023-03-31T03:57:09;7.20;;;2.20;;
9166;SDS011;4618;48.818;9.088;2023-03-31T03:59:34;4.87;;;2.10;;
9166;SDS011;4618;48.818;9.088;2023-03-31T04:02:00;4.77;;;2.10;;
9166;SDS011;4618;48.818;9.088;2023-03-31T04:04:25;5.40;;;2.00;;
9166;SDS011;4618;48.818;9.088;2023-03-31T04:06:51;6.43;;;2.00;;
9166;SDS011;4618;48.818;9.088;2023-03-31T04:09:16;4.63;;;2.10;;
9166;SDS011;4618;48.818;9.088;2023-03-31T04:11:42;8.87;;;2.87;;
9166;SDS011;4618;48.818;9.088;2023-03-31T04:14:08;4.13;;;2.17;;
9166;SDS011;4618;48.818;9.088;2023-03-31T04:16:33;3.73;;;2.13;;
9166;SDS011;4618;48.818;9.088;2023-03-31T04:18:59;6.63;;;2.10;;
9166;SDS011;4618;48.818;9.088;2023-03-31T04:21:28;4.07;;;2.30;;
9166;SDS011;4618;48.818;9.088;2023-03-31T04:23:54;5.33;;;2.10;;
9166;SDS011;4618;48.818;9.088;2023-03-31T04:26:26;5.43;;;2.60;;
9166;SDS011;4618;48.818;9.088;2023-03-31T04:29:02;7.57;;;2.60;;
9166;SDS011;4618;48.818;9.088;2023-03-31T04:31:29;5.80;;;2.00;;
9166;SDS011;4618;48.818;9.088;2023-03-31T04:33:55;6.67;;;2.47;;
9166;SDS011;4618;48.818;9.088;2023-03-31T04:36:26;6.43;;;2.33;;
9166;SDS011;4618;48.818;9.088;2023-03-31T04:38:52;4.97;;;2.40;;
9166;SDS011;4618;48.818;9.088;2023-03-31T04:41:22;4.20;;;2.23;;
9166;SDS011;4618;48.818;9.088;2023-03-31T04:43:48;6.23;;;2.57;;
9166;SDS011;4618;48.818;9.088;2023-03-31T04:46:14;4.60;;;2.53;;
9166;SDS011;4618;48.818;9.088;2023-03-31T04:48:39;4.80;;;2.23;;
9166;SDS011;4618;48.818;9.088;2023-03-31T04:51:05;6.83;;;2.80;;
9166;SDS011;4618;48.818;9.088;2023-03-31T04:53:31;4.20;;;2.30;;
9166;SDS011;4618;48.818;9.088;2023-03-31T04:55:57;7.67;;;2.90;;
9166;SDS011;4618;48.818;9.088;2023-03-31T04:58:22;5.27;;;2.60;;
9166;SDS011;4618;48.818;9.088;2023-03-31T05:00:48;6.30;;;2.77;;
9166;SDS011;4618;48.818;9.088;2023-03-31T05:03:14;8.20;;;3.00;;
9166;SDS011;4618;48.818;9.088;2023-03-31T05:05:39;6.83;;;3.30;;
9166;SDS011;4618;48.818;9.088;2023-03-31T05:08:05;7.23;;;3.10;;
9166;SDS011;4618;48.818;9.088;2023-03-31T05:10:31;6.20;;;3.10;;
9166;SDS011;4618;48.818;9.088;2023-03-31T05:12:57;6.03;;;3.10;;
9166;SDS011;4618;48.818;9.088;2023-03-31T05:15:22;5.53;;;3.10;;
9166;SDS011;4618;48.818;9.088;2023-03-31T05:17:49;7.40;;;3.30;;
9166;SDS011;4618;48.818;9.088;2023-03-31T05:20:16;4.60;;;3.40;;
9166;SDS011;4618;48.818;9.088;2023-03-31T05:22:43;10.03;;;3.10;;
9166;SDS011;4618;48.818;9.088;2023-03-31T05:25:09;6.50;;;3.50;;
9166;SDS011;4618;48.818;9.088;2023-03-31T05:27:38;11.27;;;3.57;;
9166;SDS011;4618;48.818;9.088;2023-03-31T05:30:04;6.90;;;3.50;;
9166;SDS011;4618;48.818;9.088;2023-03-31T05:32:32;9.20;;;4.17;;
9166;SDS011;4618;48.818;9.088;2023-03-31T05:34:58;7.13;;;3.50;;
9166;SDS011;4618;48.818;9.088;2023-03-31T05:37:23;6.27;;;3.63;;
9166;SDS011;4618;48.818;9.088;2023-03-31T05:39:49;8.47;;;3.90;;
9166;SDS011;4618;48.818;9.088;2023-03-31T05:42:15;10.03;;;4.07;;
9166;SDS011;4618;48.818;9.088;2023-03-31T05:44:41;9.67;;;4.00;;
9166;SDS011;4618;48.818;9.088;2023-03-31T05:47:07;5.97;;;3.77;;
9166;SDS011;4618;48.818;9.088;2023-03-31T05:49:32;10.03;;;4.17;;
9166;SDS011;4618;48.818;9.088;2023-03-31T05:51:58;12.27;;;4.47;;
9166;SDS011;4618;48.818;9.088;2023-03-31T05:54:24;7.63;;;4.40;;
9166;SDS011;4618;48.818;9.088;2023-03-31T05:56:50;11.37;;;5.03;;
9166;SDS011;4618;48.818;9.088;2023-03-31T05:59:16;8.57;;;4.70;;
9166;SDS011;4618;48.818;9.088;2023-03-31T06:01:42;9.30;;;4.70;;
9166;SDS011;4618;48.818;9.088;2023-03-31T06:04:08;8.20;;;5.23;;
9166;SDS011;4618;48.818;9.088;2023-03-31T06:06:33;13.67;;;5.03;;
9166;SDS011;4618;48.818;9.088;2023-03-31T06:08:59;11.13;;;5.13;;
9166;SDS011;4618;48.818;9.088;2023-03-31T06:11:24;10.83;;;5.00;;
9166;SDS011;4618;48.818;9.088;2023-03-31T06:13:50;10.27;;;5.17;;
9166;SDS011;4618;48.818;9.088;2023-03-31T06:16:16;9.93;;;4.93;;
9166;SDS011;4618;48.818;9.088;2023-03-31T06:18:42;11.97;;;5.43;;
9166;SDS011;4618;48.818;9.088;2023-03-31T06:21:12;10.07;;;5.30;;
9166;SDS011;4618;48.818;9.088;2023-03-31T06:23:40;14.17;;;6.97;;
9166;SDS011;4618;48.818;9.088;2023-03-31T06:26:10;11.60;;;7.80;;
9166;SDS011;4618;48.818;9.088;2023-03-31T06:28:37;12.30;;;6.53;;
9166;SDS011;4618;48.818;9.088;2023-03-31T06:31:03;10.13;;;5.83;;
9166;SDS011;4618;48.818;9.088;2023-03-31T06:33:31;7.87;;;4.67;;
9166;SDS011;4618;48.818;9.088;2023-03-31T06:35:57;10.07;;;5.60;;
9166;SDS011;4618;48.818;9.088;2023-03-31T06:38:25;11.30;;;4.93;;
9166;SDS011;4618;48.818;9.088;2023-03-31T06:40:51;8.37;;;4.83;;
9166;SDS011;4618;48.818;9.088;2023-03-31T06:43:17;8.90;;;5.10;;
9166;SDS011;4618;48.818;9.088;2023-03-31T06:45:43;10.07;;;5.07;;
9166;SDS011;4618;48.818;9.088;2023-03-31T06:48:09;11.57;;;4.47;;
9166;SDS011;4618;48.818;9.088;2023-03-31T06:50:36;11.57;;;4.93;;
9166;SDS011;4618;48.818;9.088;2023-03-31T06:53:02;9.50;;;4.97;;
9166;SDS011;4618;48.818;9.088;2023-03-31T06:55:28;7.43;;;4.70;;
9166;SDS011;4618;48.818;9.088;2023-03-31T06:57:54;8.20;;;5.00;;
9166;SDS011;4618;48.818;9.088;2023-03-31T07:00:19;8.67;;;5.27;;
9166;SDS011;4618;48.818;9.088;2023-03-31T07:02:45;10.47;;;5.00;;
9166;SDS011;4618;48.818;9.088;2023-03-31T07:05:10;9.10;;;4.80;;
9166;SDS011;4618;48.818;9.088;2023-03-31T07:07:36;10.83;;;5.43;;
9166;SDS011;4618;48.818;9.088;2023-03-31T07:10:02;5.57;;;3.77;;
9166;SDS011;4618;48.818;9.088;2023-03-31T07:12:27;8.57;;;4.10;;
9166;SDS011;4618;48.818;9.088;2023-03-31T07:14:56;7.07;;;3.93;;
9166;SDS011;4618;48.818;9.088;2023-03-31T07:17:21;6.43;;;3.77;;
9166;SDS011;4618;48.818;9.088;2023-03-31T07:19:49;7.17;;;3.80;;
9166;SDS011;4618;48.818;9.088;2023-03-31T07:22:15;5.00;;;2.73;;
9166;SDS011;4618;48.818;9.088;2023-03-31T07:24:40;6.20;;;3.30;;
9166;SDS011;4618;48.818;9.088;2023-03-31T07:27:06;5.13;;;3.10;;
9166;SDS011;4618;48.818;9.088;2023-03-31T07:29:32;5.53;;;3.10;;
9166;SDS011;4618;48.818;9.088;2023-03-31T07:31:57;2.93;;;2.10;;
9166;SDS011;4618;48.818;9.088;2023-03-31T07:34:23;3.00;;;1.97;;
9166;SDS011;4618;48.818;9.088;2023-03-31T07:36:48;1.90;;;1.80;;
9166;SDS011;4618;48.818;9.088;2023-03-31T07:39:15;5.37;;;2.00;;
9166;SDS011;4618;48.818;9.088;2023-03-31T07:41:40;4.70;;;1.70;;
9166;SDS011;4618;48.818;9.088;2023-03-31T07:44:06;3.30;;;1.70;;
9166;SDS011;4618;48.818;9.088;2023-03-31T07:46:32;1.33;;;1.00;;
9166;SDS011;4618;48.818;9.088;2023-03-31T07:48:57;1.30;;;1.20;;
9166;SDS011;4618;48.818;9.088;2023-03-31T07:51:24;2.27;;;1.23;;
9166;SDS011;4618;48.818;9.088;2023-03-31T07:53:51;2.03;;;1.13;;
9166;SDS011;4618;48.818;9.088;2023-03-31T07:56:17;1.30;;;0.80;;
9166;SDS011;4618;48.818;9.088;2023-03-31T07:58:45;1.63;;;0.77;;
9166;SDS011;4618;48.818;9.088;2023-03-31T08:01:14;1.77;;;0.90;;
9166;SDS011;4618;48.818;9.088;2023-03-31T08:03:43;1.37;;;0.70;;
9166;SDS011;4618;48.818;9.088;2023-03-31T08:06:10;1.50;;;0.70;;
9166;SDS011;4618;48.818;9.088;2023-03-31T08:08:36;1.40;;;0.70;;
9166;SDS011;4618;48.818;9.088;2023-03-31T08:11:08;1.93;;;1.00;;
9166;SDS011;4618;48.818;9.088;2023-03-31T08:13:34;1.30;;;0.73;;
9166;SDS011;4618;48.818;9.088;2023-03-31T08:15:59;2.97;;;0.70;;
9166;SDS011;4618;48.818;9.088;2023-03-31T08:18:25;1.43;;;0.70;;
9166;SDS011;4618;48.818;9.088;2023-03-31T08:20:51;2.63;;;0.80;;
9166;SDS011;4618;48.818;9.088;2023-03-31T08:23:16;2.90;;;0.60;;
9166;SDS011;4618;48.818;9.088;2023-03-31T08:25:42;1.20;;;0.70;;
9166;SDS011;4618;48.818;9.088;2023-03-31T08:28:08;1.97;;;0.60;;
9166;SDS011;4618;48.818;9.088;2023-03-31T08:30:37;1.00;;;0.90;;
9166;SDS011;4618;48.818;9.088;2023-03-31T08:33:04;1.37;;;0.57;;
9166;SDS011;4618;48.818;9.088;2023-03-31T08:35:29;3.03;;;0.70;;
9166;SDS011;4618;48.818;9.088;2023-03-31T08:37:55;1.33;;;0.60;;
9166;SDS011;4618;48.818;9.088;2023-03-31T08:40:21;3.13;;;0.60;;
9166;SDS011;4618;48.818;9.088;2023-03-31T08:42:50;2.13;;;0.80;;
9166;SDS011;4618;48.818;9.088;2023-03-31T08:45:20;1.33;;;0.60;;
9166;SDS011;4618;48.818;9.088;2023-03-31T08:47:51;3.43;;;0.80;;
9166;SDS011;4618;48.818;9.088;2023-03-31T08:50:20;2.83;;;0.90;;
9166;SDS011;4618;48.818;9.088;2023-03-31T08:52:51;1.90;;;0.70;;
9166;SDS011;4618;48.818;9.088;2023-03-31T08:55:28;2.00;;;0.80;;
9166;SDS011;4618;48.818;9.088;2023-03-31T09:00:50;3.17;;;0.90;;
9166;SDS011;4618;48.818;9.088;2023-03-31T09:03:36;3.43;;;1.07;;
9166;SDS011;4618;48.818;9.088;2023-03-31T09:06:26;5.63;;;1.00;;
9166;SDS011;4618;48.818;9.088;2023-03-31T09:09:06;2.27;;;0.90;;
9166;SDS011;4618;48.818;9.088;2023-03-31T09:11:38;2.10;;;0.80;;
9166;SDS011;4618;48.818;9.088;2023-03-31T09:14:15;1.53;;;0.50;;
9166;SDS011;4618;48.818;9.088;2023-03-31T09:17:01;2.30;;;0.87;;
9166;SDS011;4618;48.818;9.088;2023-03-31T09:19:37;1.67;;;0.77;;
9166;SDS011;4618;48.818;9.088;2023-03-31T09:22:17;3.33;;;1.00;;
9166;SDS011;4618;48.818;9.088;2023-03-31T09:27:28;1.87;;;0.73;;
9166;SDS011;4618;48.818;9.088;2023-03-31T09:30:00;3.03;;;0.93;;
9166;SDS011;4618;48.818;9.088;2023-03-31T09:32:36;3.93;;;0.77;;
9166;SDS011;4618;48.818;9.088;2023-03-31T09:35:36;3.37;;;0.90;;
9166;SDS011;4618;48.818;9.088;2023-03-31T09:37:57;3.63;;;1.20;;
9166;SDS011;4618;48.818;9.088;2023-03-31T09:40:25;2.37;;;0.90;;
9166;SDS011;4618;48.818;9.088;2023-03-31T09:42:53;3.63;;;0.90;;
9166;SDS011;4618;48.818;9.088;2023-03-31T09:45:44;4.27;;;0.90;;
9166;SDS011;4618;48.818;9.088;2023-03-31T09:48:11;3.33;;;0.97;;
9166;SDS011;4618;48.818;9.088;2023-03-31T09:50:43;5.60;;;1.00;;
9166;SDS011;4618;48.818;9.088;2023-03-31T09:53:14;4.57;;;1.00;;
9166;SDS011;4618;48.818;9.088;2023-03-31T09:56:02;4.33;;;1.10;;
9166;SDS011;4618;48.818;9.088;2023-03-31T09:58:39;5.03;;;1.03;;
9166;SDS011;4618;48.818;9.088;2023-03-31T10:01:09;5.10;;;1.03;;
9166;SDS011;4618;48.818;9.088;2023-03-31T10:06:16;3.97;;;1.30;;
9166;SDS011;4618;48.818;9.088;2023-03-31T10:08:46;3.60;;;0.80;;
9166;SDS011;4618;48.818;9.088;2023-03-31T10:11:21;3.60;;;1.10;;
9166;SDS011;4618;48.818;9.088;2023-03-31T10:14:10;3.80;;;0.83;;
9166;SDS011;4618;48.818;9.088;2023-03-31T10:16:47;2.10;;;1.07;;
9166;SDS011;4618;48.818;9.088;2023-03-31T10:22:13;3.20;;;1.20;;
9166;SDS011;4618;48.818;9.088;2023-03-31T10:24:42;4.37;;;1.13;;
9166;SDS011;4618;48.818;9.088;2023-03-31T10:27:42;3.77;;;0.97;;
9166;SDS011;4618;48.818;9.088;2023-03-31T10:30:07;4.30;;;1.23;;
9166;SDS011;4618;48.818;9.088;2023-03-31T10:32:37;3.43;;;1.00;;
9166;SDS011;4618;48.818;9.088;2023-03-31T10:37:43;3.90;;;1.20;;
9166;SDS011;4618;48.818;9.088;2023-03-31T10:40:13;2.47;;;0.70;;
9166;SDS011;4618;48.818;9.088;2023-03-31T10:42:45;2.27;;;0.93;;
9166;SDS011;4618;48.818;9.088;2023-03-31T10:45:23;3.20;;;1.00;;
9166;SDS011;4618;48.818;9.088;2023-03-31T10:47:54;4.90;;;1.40;;
9166;SDS011;4618;48.818;9.088;2023-03-31T10:50:31;4.40;;;1.10;;
9166;SDS011;4618;48.818;9.088;2023-03-31T10:55:52;3.77;;;1.10;;
9166;SDS011;4618;48.818;9.088;2023-03-31T10:58:31;4.23;;;1.23;;
9166;SDS011;4618;48.818;9.088;2023-03-31T11:01:06;5.50;;;1.10;;
9166;SDS011;4618;48.818;9.088;2023-03-31T11:03:40;2.93;;;1.13;;
9166;SDS011;4618;48.818;9.088;2023-03-31T11:09:10;3.77;;;1.03;;
9166;SDS011;4618;48.818;9.088;2023-03-31T11:15:01;2.90;;;0.67;;
9166;SDS011;4618;48.818;9.088;2023-03-31T11:26:10;1.13;;;0.40;;
9166;SDS011;4618;48.818;9.088;2023-03-31T11:31:35;2.60;;;0.30;;
9166;SDS011;4618;48.818;9.088;2023-03-31T11:39:34;1.23;;;0.20;;
9166;SDS011;4618;48.818;9.088;2023-03-31T11:42:19;1.00;;;0.20;;
9166;SDS011;4618;48.818;9.088;2023-03-31T11:44:51;2.00;;;0.50;;
9166;SDS011;4618;48.818;9.088;2023-03-31T11:47:20;0.53;;;0.20;;
9166;SDS011;4618;48.818;9.088;2023-03-31T11:49:56;1.47;;;0.23;;
9166;SDS011;4618;48.818;9.088;2023-03-31T11:52:27;0.17;;;0.17;;
9166;SDS011;4618;48.818;9.088;2023-03-31T11:57:44;0.67;;;0.20;;
9166;SDS011;4618;48.818;9.088;2023-03-31T12:00:22;0.97;;;0.20;;
9166;SDS011;4618;48.818;9.088;2023-03-31T12:02:56;0.40;;;0.13;;
9166;SDS011;4618;48.818;9.088;2023-03-31T12:05:26;0.10;;;0.10;;
9166;SDS011;4618;48.818;9.088;2023-03-31T12:08:09;0.40;;;0.10;;
9166;SDS011;4618;48.818;9.088;2023-03-31T12:10:42;2.43;;;0.23;;
9166;SDS011;4618;48.818;9.088;2023-03-31T12:16:16;0.50;;;0.07;;
9166;SDS011;4618;48.818;9.088;2023-03-31T12:19:04;2.20;;;0.30;;
9166;SDS011;4618;48.818;9.088;2023-03-31T12:21:34;0.33;;;0.20;;
9166;SDS011;4618;48.818;9.088;2023-03-31T12:24:02;1.30;;;0.40;;
9166;SDS011;4618;48.818;9.088;2023-03-31T12:26:31;0.50;;;0.37;;
9166;SDS011;4618;48.818;9.088;2023-03-31T12:31:53;0.60;;;0.30;;
9166;SDS011;4618;48.818;9.088;2023-03-31T12:34:21;1.20;;;0.50;;
9166;SDS011;4618;48.818;9.088;2023-03-31T12:47:27;1.17;;;0.30;;
9166;SDS011;4618;48.818;9.088;2023-03-31T12:55:16;1.53;;;0.40;;
9166;SDS011;4618;48.818;9.088;2023-03-31T12:58:26;2.90;;;0.70;;
9166;SDS011;4618;48.818;9.088;2023-03-31T13:06:09;2.83;;;0.77;;
9166;SDS011;4618;48.818;9.088;2023-03-31T13:16:24;3.40;;;0.93;;
9166;SDS011;4618;48.818;9.088;2023-03-31T13:18:51;1.93;;;0.30;;
9166;SDS011;4618;48.818;9.088;2023-03-31T13:21:18;1.97;;;0.70;;
9166;SDS011;4618;48.818;9.088;2023-03-31T13:23:44;4.53;;;0.80;;
9166;SDS011;4618;48.818;9.088;2023-03-31T13:26:44;2.60;;;0.67;;
9166;SDS011;4618;48.818;9.088;2023-03-31T13:40:07;1.83;;;0.20;;
9166;SDS011;4618;48.818;9.088;2023-03-31T13:43:46;0.47;;;0.30;;
9166;SDS011;4618;48.818;9.088;2023-03-31T13:45:54;0.80;;;0.23;;
9166;SDS011;4618;48.818;9.088;2023-03-31T13:54:08;1.93;;;0.40;;
9166;SDS011;4618;48.818;9.088;2023-03-31T17:56:42;2.87;;;0.60;;
9166;SDS011;4618;48.818;9.088;2023-03-31T17:59:09;4.30;;;0.50;;
9166;SDS011;4618;48.818;9.088;2023-03-31T18:01:36;6.13;;;0.57;;
9166;SDS011;4618;48.818;9.088;2023-03-31T18:04:02;3.23;;;0.60;;
9166;SDS011;4618;48.818;9.088;2023-03-31T18:06:27;1.57;;;0.43;;
9166;SDS011;4618;48.818;9.088;2023-03-31T18:08:54;1.77;;;0.70;;
9166;SDS011;4618;48.818;9.088;2023-03-31T18:11:21;4.73;;;0.60;;
9166;SDS011;4618;48.818;9.088;2023-03-31T18:13:47;3.03;;;0.77;;
9166;SDS011;4618;48.818;9.088;2023-03-31T18:16:13;1.33;;;0.40;;
9166;SDS011;4618;48.818;9.088;2023-03-31T18:18:39;1.20;;;0.63;;
9166;SDS011;4618;48.818;9.088;2023-03-31T18:21:07;2.03;;;0.70;;
9166;SDS011;4618;48.818;9.088;2023-03-31T18:23:35;4.10;;;0.90;;
9166;SDS011;4618;48.818;9.088;2023-03-31T18:26:04;2.67;;;0.90;;
9166;SDS011;4618;48.818;9.088;2023-03-31T18:28:31;2.57;;;0.93;;
9166;SDS011;4618;48.818;9.088;2023-03-31T18:30:56;3.50;;;0.80;;
9166;SDS011;4618;48.818;9.088;2023-03-31T18:33:26;2.17;;;0.77;;
9166;SDS011;4618;48.818;9.088;2023-03-31T18:35:51;1.93;;;0.80;;
9166;SDS011;4618;48.818;9.088;2023-03-31T18:38:17;1.70;;;0.70;;
9166;SDS011;4618;48.818;9.088;2023-03-31T18:40:47;2.57;;;0.67;;
9166;SDS011;4618;48.818;9.088;2023-03-31T18:43:14;1.97;;;0.80;;
9166;SDS011;4618;48.818;9.088;2023-03-31T18:45:39;3.50;;;0.80;;
9166;SDS011;4618;48.818;9.088;2023-03-31T18:48:06;1.90;;;0.60;;
9166;SDS011;4618;48.818;9.088;2023-03-31T18:50:31;1.47;;;0.70;;
9166;SDS011;4618;48.818;9.088;2023-03-31T18:52:57;1.60;;;0.70;;
9166;SDS011;4618;48.818;9.088;2023-03-31T18:55:22;4.23;;;0.90;;
9166;SDS011;4618;48.818;9.088;2023-03-31T18:57:48;1.90;;;0.70;;
9166;SDS011;4618;48.818;9.088;2023-03-31T19:00:14;1.43;;;0.67;;
9166;SDS011;4618;48.818;9.088;2023-03-31T19:02:40;2.60;;;0.67;;
9166;SDS011;4618;48.818;9.088;2023-03-31T19:05:05;1.93;;;0.80;;
9166;SDS011;4618;48.818;9.088;2023-03-31T19:07:32;3.03;;;0.60;;
9166;SDS011;4618;48.818;9.088;2023-03-31T19:09:58;3.20;;;1.00;;
9166;SDS011;4618;48.818;9.088;2023-03-31T19:12:23;1.80;;;0.87;;
9166;SDS011;4618;48.818;9.088;2023-03-31T19:14:49;1.97;;;0.87;;
9166;SDS011;4618;48.818;9.088;2023-03-31T19:17:15;2.17;;;0.77;;
9166;SDS011;4618;48.818;9.088;2023-03-31T19:19:41;2.30;;;0.70;;
9166;SDS011;4618;48.818;9.088;2023-03-31T19:22:07;3.17;;;0.80;;
9166;SDS011;4618;48.818;9.088;2023-03-31T19:24:33;4.57;;;1.30;;
9166;SDS011;4618;48.818;9.088;2023-03-31T19:26:59;3.50;;;0.60;;
9166;SDS011;4618;48.818;9.088;2023-03-31T19:29:24;1.87;;;0.77;;
9166;SDS011;4618;48.818;9.088;2023-03-31T19:31:51;4.23;;;0.83;;
9166;SDS011;4618;48.818;9.088;2023-03-31T19:34:19;2.53;;;0.77;;
9166;SDS011;4618;48.818;9.088;2023-03-31T19:36:45;2.27;;;0.70;;
9166;SDS011;4618;48.818;9.088;2023-03-31T19:39:11;1.77;;;0.53;;
9166;SDS011;4618;48.818;9.088;2023-03-31T19:41:37;3.80;;;1.37;;
9166;SDS011;4618;48.818;9.088;2023-03-31T19:44:03;2.10;;;0.53;;
9166;SDS011;4618;48.818;9.088;2023-03-31T19:46:29;3.17;;;0.70;;
9166;SDS011;4618;48.818;9.088;2023-03-31T19:48:54;3.40;;;0.60;;
9166;SDS011;4618;48.818;9.088;2023-03-31T19:51:20;2.20;;;0.77;;
9166;SDS011;4618;48.818;9.088;2023-03-31T19:53:46;2.77;;;0.60;;
9166;SDS011;4618;48.818;9.088;2023-03-31T19:56:13;4.00;;;0.90;;
9166;SDS011;4618;48.818;9.088;2023-03-31T19:58:40;2.90;;;0.60;;
9166;SDS011;4618;48.818;9.088;2023-03-31T20:01:07;2.30;;;0.80;;
9166;SDS011;4618;48.818;9.088;2023-03-31T20:03:43;3.27;;;0.87;;
9166;SDS011;4618;48.818;9.088;2023-03-31T20:06:10;1.43;;;0.70;;
9166;SDS011;4618;48.818;9.088;2023-03-31T20:08:38;2.87;;;0.93;;
9166;SDS011;4618;48.818;9.088;2023-03-31T20:11:09;3.60;;;1.03;;
9166;SDS011;4618;48.818;9.088;2023-03-31T20:13:37;3.90;;;0.80;;
9166;SDS011;4618;48.818;9.088;2023-03-31T20:16:07;4.07;;;1.07;;
9166;SDS011;4618;48.818;9.088;2023-03-31T20:18:35;2.83;;;0.70;;
9166;SDS011;4618;48.818;9.088;2023-03-31T20:21:05;3.63;;;0.80;;
9166;SDS011;4618;48.818;9.088;2023-03-31T20:23:34;3.60;;;0.70;;
9166;SDS011;4618;48.818;9.088;2023-03-31T20:26:01;4.43;;;0.80;;
9166;SDS011;4618;48.818;9.088;2023-03-31T20:28:29;2.50;;;1.03;;
9166;SDS011;4618;48.818;9.088;2023-03-31T20:30:56;3.60;;;0.93;;
9166;SDS011;4618;48.818;9.088;2023-03-31T20:33:22;1.93;;;0.70;;
9166;SDS011;4618;48.818;9.088;2023-03-31T20:35:57;2.70;;;1.27;;
9166;SDS011;4618;48.818;9.088;2023-03-31T20:38:24;3.67;;;0.87;;
9166;SDS011;4618;48.818;9.088;2023-03-31T20:40:50;4.07;;;0.60;;
9166;SDS011;4618;48.818;9.088;2023-03-31T20:43:16;2.87;;;0.77;;
9166;SDS011;4618;48.818;9.088;2023-03-31T20:45:41;1.40;;;0.70;;
9166;SDS011;4618;48.818;9.088;2023-03-31T20:48:07;3.23;;;0.70;;
9166;SDS011;4618;48.818;9.088;2023-03-31T20:50:34;3.57;;;0.90;;
9166;SDS011;4618;48.818;9.088;2023-03-31T20:53:01;4.73;;;1.07;;
9166;SDS011;4618;48.818;9.088;2023-03-31T20:55:27;6.60;;;0.90;;
9166;SDS011;4618;48.818;9.088;2023-03-31T20:57:53;3.63;;;0.80;;
9166;SDS011;4618;48.818;9.088;2023-03-31T21:00:18;4.67;;;1.23;;
9166;SDS011;4618;48.818;9.088;2023-03-31T21:02:44;3.77;;;1.10;;
9166;SDS011;4618;48.818;9.088;2023-03-31T21:05:09;4.57;;;1.03;;
9166;SDS011;4618;48.818;9.088;2023-03-31T21:07:35;3.80;;;0.97;;
9166;SDS011;4618;48.818;9.088;2023-03-31T21:10:01;3.73;;;1.00;;
9166;SDS011;4618;48.818;9.088;2023-03-31T21:12:28;3.47;;;0.70;;
9166;SDS011;4618;48.818;9.088;2023-03-31T21:14:54;2.90;;;0.80;;
9166;SDS011;4618;48.818;9.088;2023-03-31T21:17:19;2.80;;;0.93;;
9166;SDS011;4618;48.818;9.088;2023-03-31T21:19:45;2.20;;;0.80;;
9166;SDS011;4618;48.818;9.088;2023-03-31T21:22:11;3.27;;;0.70;;
9166;SDS011;4618;48.818;9.088;2023-03-31T21:24:36;3.03;;;0.90;;
9166;SDS011;4618;48.818;9.088;2023-03-31T21:27:02;3.30;;;1.10;;
9166;SDS011;4618;48.818;9.088;2023-03-31T21:29:27;3.97;;;1.00;;
9166;SDS011;4618;48.818;9.088;2023-03-31T21:31:53;2.27;;;0.70;;
9166;SDS011;4618;48.818;9.088;2023-03-31T21:34:18;3.93;;;1.20;;
9166;SDS011;4618;48.818;9.088;2023-03-31T21:36:44;3.20;;;0.60;;
9166;SDS011;4618;48.818;9.088;2023-03-31T21:39:10;3.10;;;0.67;;
9166;SDS011;4618;48.818;9.088;2023-03-31T21:41:35;2.90;;;0.70;;
9166;SDS011;4618;48.818;9.088;2023-03-31T21:44:03;3.40;;;0.87;;
9166;SDS011;4618;48.818;9.088;2023-03-31T21:46:30;2.63;;;0.80;;